Flight Track Log - Related Links

Times and Time Zones

All times are in EST time to prevent confusion due to time zone crossing. See the EJA922 flight status page for this flight to view local times or setup timezone preferences in your user account.

Time Position Orientation Groundspeed Altitude Reporting Facility
EST Latitude Longitude Course Direction KTS MPH feet Rate Location/Type
Sat 07:14:42 PM 33.5567 -117.8897 172° South 235 270 7,300  Level Los Angeles Center
Sat 07:15:44 PM 33.5492 -117.8094 96° East 261 300 10,000 2,390 Climbing Los Angeles Center
Sat 07:16:45 PM 33.5625 -117.6903 82° East 314 361 12,200 2,293 Climbing Los Angeles Center
Sat 07:17:47 PM 33.5733 -117.5819 83° East 352 405 14,700 2,419 Climbing Los Angeles Center
Sat 07:18:49 PM 33.5856 -117.4561 83° East 377 434 17,200 2,311 Climbing Los Angeles Center
Sat 07:19:00 PM 33.6534 -116.8416 91° East  Level Estimated
Sat 07:20:02 PM 33.5917 -117.2994 87° East 393 452 19,900  Level Los Angeles Center
Sat 07:21:04 PM 33.5967 -117.1344 88° East 412 474 22,400 1,887 Climbing Los Angeles Center
Sat 07:22:06 PM 33.6025 -116.9883 87° East 433 498 23,800 1,548 Climbing Los Angeles Center
Sat 07:23:08 PM 33.6069 -116.8461 88° East 451 519 25,600 1,707 Climbing Los Angeles Center
Sat 07:24:09 PM 33.6117 -116.6911 88° East 462 532 27,300 1,805 Climbing Los Angeles Center
Sat 07:25:11 PM 33.6181 -116.4975 88° East 480 552 29,300 1,610 Climbing Los Angeles Center
Sat 07:26:12 PM 33.6239 -116.3292 88° East 498 573 30,600 1,268 Climbing Los Angeles Center
Sat 07:27:14 PM 33.6272 -116.1539 89° East 518 596 31,900 1,113 Climbing Los Angeles Center
Sat 07:28:16 PM 33.6250 -115.9717 91° East 538 619 32,900 489 Climbing Los Angeles Center
Sat 07:29:29 PM 33.6211 -115.7886 91° East 545 627 33,000 44 Climbing Los Angeles Center
Sat 07:30:31 PM 33.6158 -115.5689 92° East 546 628 33,000  Level Los Angeles Center
Sat 07:31:33 PM 33.6114 -115.3875 92° East 545 627 33,000  Level Los Angeles Center
Sat 07:32:35 PM 33.6050 -115.2103 92° East 537 618 33,000 -49 Level Los Angeles Center
Sat 07:33:36 PM 33.6008 -115.0039 91° East 522 601 32,900  Descending Los Angeles Center
Sat 07:34:38 PM 33.5969 -114.8331 92° East 515 593 33,000 48 Climbing Los Angeles Center
Sat 07:35:40 PM 33.5778 -114.6650 98° East 510 587 33,000 -878 Level Los Angeles Center
Sat 07:36:41 PM 33.5450 -114.4972 103° East 512 589 31,200 -2,293 Descending Los Angeles Center
Sat 07:37:43 PM 33.5083 -114.3192 104° East 539 620 28,300 -2,806 Descending Los Angeles Center
Sat 07:38:45 PM 33.4736 -114.1450 103° East 541 623 25,400 -1,610 Descending Los Angeles Center
Sat 07:39:46 PM 33.4425 -113.9850 103° East 507 583 25,000 -195 Descending Los Angeles Center
Sat 07:40:48 PM 33.4106 -113.8217 103° East 503 579 25,000 -145 Level Los Angeles Center
Sat 07:41:50 PM 33.3703 -113.6233 104° East 510 587 24,700 -1,415 Descending Los Angeles Center
Sat 07:42:51 PM 33.3392 -113.4661 103° East 480 552 22,100 -2,341 Descending Los Angeles Center
Sat 07:43:53 PM 33.3092 -113.3200 104° East 455 524 19,900 -1,951 Descending Los Angeles Center
Sat 07:44:54 PM 33.2817 -113.1842 104° East 424 488 18,100 -1,225 Descending Los Angeles Center
Sat 07:46:15 PM 33.2756 -113.0147 92° East 420 483 17,000 -545 Descending Albuquerque Center
Sat 07:47:17 PM 33.2792 -112.8736 88° East 355 409 16,800 -488 Descending Albuquerque Center
Sat 07:48:18 PM 33.2814 -112.7708 88° East 315 362 16,000 -443 Descending Albuquerque Center
Sat 07:49:19 PM 33.2842 -112.6619 88° East 321 369 15,900 -885 Descending Albuquerque Center
Sat 07:50:20 PM 33.2861 -112.5636 89° East 324 373 14,200 -1,623 Descending Albuquerque Center
Sat 07:51:21 PM 33.2894 -112.4647 88° East 304 350 12,600 -1,525 Descending Albuquerque Center
Sat 07:52:22 PM 33.2919 -112.3714 88° East 285 328 11,100 -780 Descending Albuquerque Center
Sat 07:53:24 PM 33.2989 -112.2564 86° East 289 333 11,000 -390 Descending Albuquerque Center
Sat 07:54:25 PM 33.3053 -112.1789 84° East 240 276 10,300 -984 Descending Albuquerque Center
Sat 07:55:26 PM 33.3108 -112.1000 85° East 239 275 9,000 -1,230 Descending Albuquerque Center
Sat 07:56:27 PM 33.3297 -112.0231 74° East 240 276 7,800 -976 Descending Albuquerque Center
Sat 07:57:29 PM 33.3467 -111.9533 74° East 221 254 7,000 -1,463 Descending Albuquerque Center
Sat 07:58:30 PM 33.3458 -111.8783 91° East 228 262 4,800 -1,967 Descending Albuquerque Center
Sat 07:59:31 PM 33.3897 -111.8489 29° Northeast 227 261 3,000 -1,080 Descending Albuquerque Center
Sat 08:00:10 PM 33.4167 -111.8833 313° West 189 217 3,000 -480 Level Phoenix TRACON
Sat 08:01:11 PM 33.4333 -111.9333 292° West 171 197 2,200 -787 Descending Phoenix TRACON

Login

Don't have an account? Register now (free) for customized features, flight alerts, and more!